createdAt,value
2022-08-26T00:01:40.185Z,16.67
2022-08-26T00:04:42.025Z,17.83
2022-08-26T00:07:44.162Z,13.18
2022-08-26T00:10:46.031Z,12.35
2022-08-26T00:13:48.905Z,12.40
2022-08-26T00:16:51.854Z,13.65
2022-08-26T00:19:57.164Z,15.70
2022-08-26T00:22:58.845Z,15.55
2022-08-26T00:26:01.331Z,15.02
2022-08-26T00:29:03.904Z,12.20
2022-08-26T00:32:07.012Z,13.13
2022-08-26T00:35:10.434Z,14.13
2022-08-26T00:38:13.373Z,13.13
2022-08-26T00:41:15.386Z,13.02
2022-08-26T00:44:19.558Z,11.63
2022-08-26T00:47:28.547Z,16.48
2022-08-26T00:50:38.490Z,16.75
2022-08-26T00:53:48.193Z,13.00
2022-08-26T00:56:53.428Z,12.63
2022-08-26T00:59:58.899Z,15.18
2022-08-26T01:03:03.460Z,12.95
2022-08-26T01:06:12.574Z,16.08
2022-08-26T01:09:16.254Z,12.75
2022-08-26T01:12:22.217Z,12.15
2022-08-26T01:15:32.953Z,13.48
2022-08-26T01:18:35.927Z,13.77
2022-08-26T01:22:03.626Z,12.93
2022-08-26T01:25:05.928Z,13.48
2022-08-26T01:28:14.637Z,11.95
2022-08-26T01:31:23.786Z,14.27
2022-08-26T01:34:35.068Z,19.13
2022-08-26T01:37:40.504Z,13.65
2022-08-26T01:40:44.023Z,13.53
2022-08-26T01:43:48.455Z,15.90
2022-08-26T01:46:52.235Z,14.38
2022-08-26T01:49:56.762Z,14.82
2022-08-26T01:53:02.624Z,15.10
2022-08-26T01:56:05.345Z,11.60
2022-08-26T01:59:11.293Z,12.48
2022-08-26T02:02:14.039Z,14.52
2022-08-26T02:05:19.419Z,14.68
2022-08-26T02:08:39.247Z,14.85
2022-08-26T02:11:41.160Z,14.95
2022-08-26T02:14:50.154Z,14.32
2022-08-26T02:17:53.231Z,13.15
2022-08-26T02:20:56.377Z,13.50
2022-08-26T02:24:08.999Z,14.68
2022-08-26T02:27:10.686Z,14.77
2022-08-26T02:30:18.114Z,12.25
2022-08-26T02:33:19.817Z,15.65
2022-08-26T02:36:25.043Z,15.82
2022-08-26T02:39:31.827Z,16.52
2022-08-26T02:42:34.060Z,13.15
2022-08-26T02:45:36.051Z,15.82
2022-08-26T02:48:37.741Z,13.57
2022-08-26T02:51:39.447Z,12.05
2022-08-26T02:54:41.842Z,14.45
2022-08-26T02:57:43.740Z,12.75
2022-08-26T03:00:52.539Z,14.75
2022-08-26T03:03:56.178Z,12.25
2022-08-26T03:06:58.685Z,13.55
2022-08-26T03:10:01.520Z,18.45
2022-08-26T03:13:10.073Z,15.20
2022-08-26T03:16:13.411Z,13.27
2022-08-26T03:19:15.325Z,18.90
2022-08-26T03:22:19.430Z,16.85
2022-08-26T03:25:23.032Z,14.38
2022-08-26T03:28:27.209Z,14.55
2022-08-26T03:31:29.838Z,16.33
2022-08-26T03:34:31.985Z,15.50
2022-08-26T03:37:33.663Z,15.38
2022-08-26T03:40:36.767Z,14.50
2022-08-26T03:43:40.708Z,15.07
2022-08-26T03:46:42.445Z,14.07
2022-08-26T03:49:45.751Z,16.70
2022-08-26T03:52:47.939Z,17.33
2022-08-26T03:55:51.887Z,21.27
2022-08-26T03:58:54.240Z,16.80
2022-08-26T04:01:56.033Z,18.15
2022-08-26T04:04:57.740Z,16.98
2022-08-26T04:07:59.580Z,19.20
2022-08-26T04:11:01.294Z,15.95
2022-08-26T04:14:14.288Z,18.63
2022-08-26T04:17:20.068Z,19.00
2022-08-26T04:20:27.269Z,16.73
2022-08-26T04:23:29.853Z,16.80
2022-08-26T04:26:39.509Z,18.98
2022-08-26T04:29:46.263Z,17.45
2022-08-26T04:32:54.234Z,19.58
2022-08-26T04:36:01.004Z,18.13
2022-08-26T04:39:05.337Z,15.43
2022-08-26T04:42:07.037Z,18.42
2022-08-26T04:45:10.395Z,16.85
2022-08-26T04:48:13.485Z,19.45
2022-08-26T04:51:20.997Z,22.65
2022-08-26T04:54:22.746Z,16.58
2022-08-26T04:57:24.450Z,18.70
2022-08-26T05:00:26.131Z,15.95
2022-08-26T05:03:30.539Z,17.20
2022-08-26T05:06:36.823Z,20.10
2022-08-26T05:09:42.055Z,18.70
2022-08-26T05:12:44.360Z,20.52
2022-08-26T05:15:47.034Z,17.20
2022-08-26T05:18:48.982Z,15.38
2022-08-26T05:21:50.649Z,18.58
2022-08-26T05:24:52.300Z,21.88
2022-08-26T05:27:54.313Z,16.23
2022-08-26T05:30:56.351Z,17.35
2022-08-26T05:33:59.286Z,18.65
2022-08-26T05:37:00.952Z,24.00
2022-08-26T05:40:04.610Z,22.35
2022-08-26T05:43:10.410Z,22.27
2022-08-26T05:46:12.394Z,18.60
2022-08-26T05:49:15.840Z,20.88
2022-08-26T05:52:17.759Z,20.95
2022-08-26T05:55:20.652Z,18.17
2022-08-26T05:58:23.109Z,19.02
2022-08-26T06:01:28.022Z,17.42
2022-08-26T06:04:29.914Z,15.00
2022-08-26T06:07:50.367Z,15.38
2022-08-26T06:10:59.822Z,17.92
2022-08-26T06:14:06.076Z,20.08
2022-08-26T06:20:36.922Z,20.13
2022-08-26T06:23:57.847Z,14.25
2022-08-26T06:27:04.955Z,22.17
2022-08-26T06:30:07.344Z,17.63
2022-08-26T06:36:55.519Z,19.40
2022-08-26T06:40:05.607Z,19.98
2022-08-26T06:43:09.221Z,18.20
2022-08-26T06:46:12.854Z,19.27
2022-08-26T06:49:14.496Z,17.17
2022-08-26T06:52:24.422Z,19.23
2022-08-26T06:55:26.941Z,19.52
2022-08-26T06:58:28.906Z,21.20
2022-08-26T07:01:33.762Z,18.90
2022-08-26T07:04:36.174Z,17.80
2022-08-26T07:07:38.457Z,18.17
2022-08-26T07:10:40.122Z,16.58
2022-08-26T07:13:41.867Z,17.45
2022-08-26T07:16:45.086Z,16.38
2022-08-26T07:19:48.926Z,21.15
2022-08-26T07:22:51.066Z,18.20
2022-08-26T07:25:52.746Z,17.70
2022-08-26T07:28:56.218Z,17.77
2022-08-26T07:31:58.487Z,21.00
2022-08-26T07:35:01.510Z,22.02
2022-08-26T07:38:03.467Z,20.20
2022-08-26T07:41:06.107Z,18.65
2022-08-26T07:44:10.225Z,20.88
2022-08-26T07:47:24.984Z,17.42
2022-08-26T07:50:38.429Z,17.15
2022-08-26T07:53:52.403Z,17.83
2022-08-26T07:56:55.856Z,15.93
2022-08-26T07:59:59.088Z,16.77
2022-08-26T08:03:02.652Z,16.90
2022-08-26T08:06:04.626Z,16.85
2022-08-26T08:09:07.905Z,17.42
2022-08-26T08:12:14.112Z,15.65
2022-08-26T08:15:20.398Z,18.95
2022-08-26T08:18:23.392Z,14.43
2022-08-26T08:21:25.905Z,14.05
2022-08-26T08:24:27.724Z,16.33
2022-08-26T08:27:29.513Z,16.92
2022-08-26T08:30:31.841Z,12.38
2022-08-26T08:33:36.847Z,11.97
2022-08-26T08:36:40.183Z,14.90
2022-08-26T08:39:43.263Z,12.15
2022-08-26T08:43:07.099Z,16.17
2022-08-26T08:46:15.406Z,13.25
2022-08-26T08:49:18.553Z,16.90
2022-08-26T08:52:29.474Z,13.15
2022-08-26T08:55:55.593Z,15.35
2022-08-26T08:59:56.868Z,15.52
2022-08-26T09:03:11.965Z,19.48
2022-08-26T09:06:22.620Z,17.90
2022-08-26T09:09:50.999Z,21.52
2022-08-26T09:12:53.096Z,15.25
2022-08-26T09:16:14.050Z,18.73
2022-08-26T09:19:52.320Z,16.27
2022-08-26T09:26:32.572Z,18.63
2022-08-26T09:29:50.490Z,19.85
2022-08-26T09:33:02.491Z,20.08
2022-08-26T09:36:26.305Z,14.65
2022-08-26T09:39:38.583Z,18.05
2022-08-26T09:42:40.392Z,13.90
2022-08-26T09:45:58.489Z,21.40
2022-08-26T09:49:32.665Z,15.85
2022-08-26T09:52:38.208Z,16.13
2022-08-26T09:55:45.776Z,15.13
2022-08-26T09:58:48.279Z,16.48
2022-08-26T10:01:50.136Z,16.95
2022-08-26T10:04:55.334Z,15.90
2022-08-26T10:07:59.572Z,15.00
2022-08-26T10:11:24.572Z,15.43
2022-08-26T10:14:48.893Z,17.45
2022-08-26T10:18:03.630Z,15.93
2022-08-26T10:21:29.117Z,14.63
2022-08-26T10:24:41.866Z,16.08
2022-08-26T10:27:58.952Z,15.98
2022-08-26T10:31:14.751Z,17.58
2022-08-26T10:34:18.601Z,23.95
2022-08-26T10:37:31.140Z,15.40
2022-08-26T10:41:09.810Z,12.57
2022-08-26T10:44:16.096Z,15.85
2022-08-26T10:47:46.107Z,16.63
2022-08-26T10:50:48.719Z,22.00
2022-08-26T10:53:58.987Z,25.50
2022-08-26T10:57:10.953Z,18.98
2022-08-26T11:00:50.002Z,18.13
2022-08-26T11:04:10.653Z,14.75
2022-08-26T11:07:43.273Z,21.83
2022-08-26T11:10:59.999Z,12.90
2022-08-26T11:14:05.079Z,15.52
2022-08-26T11:17:09.461Z,17.85
2022-08-26T11:20:23.874Z,13.90
2022-08-26T11:23:28.953Z,15.77
2022-08-26T11:26:55.397Z,14.90
2022-08-26T11:30:13.156Z,12.07
2022-08-26T11:33:47.923Z,14.05
2022-08-26T11:37:04.044Z,12.48
2022-08-26T11:40:12.359Z,13.35
2022-08-26T11:43:30.566Z,15.23
2022-08-26T11:46:37.970Z,18.83
2022-08-26T11:49:41.802Z,10.18
2022-08-26T11:53:13.911Z,9.05
2022-08-26T12:05:09.190Z,9.88
2022-08-26T12:08:24.865Z,14.57
2022-08-26T12:11:34.616Z,12.57
2022-08-26T12:18:45.966Z,10.95
2022-08-26T12:21:49.107Z,13.43
2022-08-26T12:24:59.864Z,11.35
2022-08-26T12:28:05.586Z,12.07
2022-08-26T12:31:08.355Z,13.65
2022-08-26T12:34:18.130Z,13.73
2022-08-26T12:37:20.389Z,14.40
2022-08-26T12:40:43.587Z,9.98
2022-08-26T12:43:45.999Z,16.05
2022-08-26T12:46:49.786Z,10.07
2022-08-26T12:50:03.418Z,13.30
2022-08-26T12:53:17.841Z,12.27
2022-08-26T12:56:29.400Z,12.77
2022-08-26T12:59:31.061Z,10.73
2022-08-26T13:02:38.314Z,15.80
2022-08-26T13:05:40.088Z,11.40
2022-08-26T13:08:49.375Z,13.60
2022-08-26T13:11:53.163Z,10.63
2022-08-26T13:14:55.282Z,16.02
2022-08-26T13:17:58.294Z,11.95
2022-08-26T13:21:00.332Z,13.27
2022-08-26T13:24:09.444Z,10.70
2022-08-26T13:27:14.358Z,12.70
2022-08-26T13:30:16.254Z,13.13
2022-08-26T13:33:18.589Z,11.88
2022-08-26T13:36:20.359Z,16.08
2022-08-26T13:39:22.830Z,10.25
2022-08-26T13:42:24.617Z,11.20
2022-08-26T13:45:26.286Z,11.60
2022-08-26T13:48:28.056Z,11.25
2022-08-26T13:51:30.034Z,15.15
2022-08-26T13:54:31.738Z,11.55
2022-08-26T13:57:33.692Z,13.57
2022-08-26T14:00:44.096Z,9.35
2022-08-26T14:03:46.319Z,10.10
2022-08-26T14:06:48.207Z,12.40
2022-08-26T14:09:50.122Z,15.23
2022-08-26T14:12:52.797Z,10.38
2022-08-26T14:15:54.681Z,10.32
2022-08-26T14:18:56.391Z,11.55
2022-08-26T14:22:00.801Z,11.93
2022-08-26T14:25:02.985Z,17.83
2022-08-26T14:28:04.997Z,11.45
2022-08-26T14:31:07.184Z,15.85
2022-08-26T14:34:09.716Z,12.82
2022-08-26T14:37:19.047Z,18.52
2022-08-26T14:40:22.790Z,13.35
2022-08-26T14:43:24.529Z,12.68
2022-08-26T14:46:29.444Z,14.13
2022-08-26T14:52:53.973Z,12.85
2022-08-26T14:55:55.659Z,18.42
2022-08-26T14:58:57.449Z,17.20
2022-08-26T15:02:00.708Z,12.75
2022-08-26T15:05:04.432Z,12.57
2022-08-26T15:08:13.951Z,14.35
2022-08-26T15:11:20.469Z,16.65
2022-08-26T15:14:26.759Z,15.50
2022-08-26T15:17:29.477Z,12.25
2022-08-26T15:20:38.748Z,14.23
2022-08-26T15:23:47.620Z,12.32
2022-08-26T15:26:50.112Z,15.90
2022-08-26T15:29:51.895Z,17.23
2022-08-26T15:32:53.695Z,14.82
2022-08-26T15:35:55.873Z,17.25
2022-08-26T15:39:04.526Z,15.50
2022-08-26T15:42:15.128Z,12.68
2022-08-26T15:45:25.999Z,11.60
2022-08-26T15:48:34.347Z,13.65
2022-08-26T15:51:45.843Z,14.33
2022-08-26T15:54:47.869Z,9.80
2022-08-26T15:57:51.713Z,9.73
2022-08-26T16:00:57.632Z,10.07
2022-08-26T16:03:59.798Z,11.30
2022-08-26T16:07:01.991Z,9.27
2022-08-26T16:10:04.046Z,11.20
2022-08-26T16:13:27.112Z,13.68
2022-08-26T16:16:41.480Z,10.82
2022-08-26T16:19:43.337Z,12.45
2022-08-26T16:22:45.078Z,13.23
2022-08-26T16:25:47.087Z,11.45
2022-08-26T16:28:49.144Z,12.32
2022-08-26T16:31:53.373Z,12.90
2022-08-26T16:34:56.695Z,12.23
2022-08-26T16:37:58.794Z,12.98
2022-08-26T16:41:01.246Z,13.20
2022-08-26T16:44:04.199Z,14.13
2022-08-26T16:47:06.088Z,14.95
2022-08-26T16:50:13.021Z,12.55
2022-08-26T16:56:18.973Z,13.55
2022-08-26T16:59:24.063Z,14.30
2022-08-26T17:02:28.911Z,13.98
2022-08-26T17:05:30.783Z,11.23
2022-08-26T17:08:40.100Z,15.00
2022-08-26T17:11:42.072Z,13.48
2022-08-26T17:14:43.834Z,12.93
2022-08-26T17:17:50.888Z,13.35
2022-08-26T17:20:55.529Z,18.05
2022-08-26T17:23:57.403Z,13.50
2022-08-26T17:26:59.071Z,13.00
2022-08-26T17:30:00.697Z,17.13
2022-08-26T17:33:02.627Z,17.60
2022-08-26T17:36:12.481Z,17.98
2022-08-26T17:39:14.442Z,16.08
2022-08-26T17:42:16.401Z,17.35
2022-08-26T17:45:21.739Z,18.13
2022-08-26T17:48:29.602Z,19.60
2022-08-26T17:51:31.417Z,17.35
2022-08-26T17:54:33.133Z,18.73
2022-08-26T17:57:40.556Z,18.90
2022-08-26T18:00:45.005Z,19.67
2022-08-26T18:03:50.079Z,18.38
2022-08-26T18:06:51.876Z,18.07
2022-08-26T18:09:53.633Z,19.85
2022-08-26T18:12:57.629Z,22.40
2022-08-26T18:15:59.934Z,18.70
2022-08-26T18:19:01.988Z,21.05
2022-08-26T18:22:03.897Z,24.23
2022-08-26T18:25:07.759Z,21.80
2022-08-26T18:28:09.896Z,23.70
2022-08-26T18:31:11.695Z,22.63
2022-08-26T18:34:15.436Z,26.77
2022-08-26T18:37:17.313Z,20.55
2022-08-26T18:40:19.058Z,21.38
2022-08-26T18:43:21.324Z,20.75
2022-08-26T18:46:25.380Z,22.83
2022-08-26T18:49:27.932Z,23.83
2022-08-26T18:52:32.971Z,22.90
2022-08-26T18:55:39.676Z,21.60
2022-08-26T18:58:41.535Z,23.27
2022-08-26T19:01:46.648Z,23.10
2022-08-26T19:04:54.422Z,24.77
2022-08-26T19:07:57.163Z,23.30
2022-08-26T19:11:01.232Z,22.60
2022-08-26T19:14:08.216Z,21.13
2022-08-26T19:17:10.901Z,24.15
2022-08-26T19:20:12.681Z,23.98
2022-08-26T19:23:30.959Z,21.30
2022-08-26T19:26:34.360Z,21.92
2022-08-26T19:29:36.318Z,22.85
2022-08-26T19:32:38.273Z,24.63
2022-08-26T19:35:45.035Z,28.42
2022-08-26T19:38:47.681Z,26.25
2022-08-26T19:41:49.490Z,26.58
2022-08-26T19:45:24.346Z,25.65
2022-08-26T19:48:27.356Z,23.23
2022-08-26T19:51:31.733Z,26.27
2022-08-26T19:54:34.151Z,27.83
2022-08-26T19:57:36.890Z,25.92
2022-08-26T20:00:39.803Z,24.40
2022-08-26T20:03:42.151Z,22.67
2022-08-26T20:06:43.793Z,24.40
2022-08-26T20:09:46.770Z,23.17
2022-08-26T20:12:51.855Z,20.48
2022-08-26T20:15:53.549Z,23.00
2022-08-26T20:19:13.687Z,24.33
2022-08-26T20:22:15.599Z,21.27
2022-08-26T20:25:17.348Z,27.35
2022-08-26T20:28:19.120Z,26.13
2022-08-26T20:31:21.619Z,22.92
2022-08-26T20:34:23.396Z,26.58
2022-08-26T20:37:25.270Z,24.73
2022-08-26T20:40:27.089Z,21.25
2022-08-26T20:43:29.421Z,24.38
2022-08-26T20:46:34.612Z,21.92
2022-08-26T20:49:36.312Z,21.25
2022-08-26T20:52:38.665Z,17.05
2022-08-26T20:55:40.302Z,15.77
2022-08-26T20:58:42.355Z,16.20
2022-08-26T21:01:45.508Z,17.60
2022-08-26T21:04:47.493Z,18.70
2022-08-26T21:07:49.300Z,13.57
2022-08-26T21:10:51.597Z,17.08
2022-08-26T21:14:06.701Z,12.35
2022-08-26T21:17:16.330Z,12.20
2022-08-26T21:20:18.658Z,12.40
2022-08-26T21:23:20.407Z,10.77
2022-08-26T21:26:22.706Z,10.23
2022-08-26T21:29:24.461Z,10.65
2022-08-26T21:32:26.404Z,10.10
2022-08-26T21:35:28.071Z,11.95
2022-08-26T21:38:31.065Z,12.45
2022-08-26T21:41:32.809Z,9.85
2022-08-26T21:44:34.577Z,9.50
2022-08-26T21:47:36.477Z,10.75
2022-08-26T21:50:38.273Z,10.95
2022-08-26T21:53:40.657Z,9.75
2022-08-26T21:56:46.776Z,10.25
2022-08-26T21:59:48.499Z,10.52
2022-08-26T22:02:50.234Z,11.40
2022-08-26T22:05:52.645Z,11.52
2022-08-26T22:08:55.922Z,8.82
2022-08-26T22:11:58.135Z,9.77
2022-08-26T22:14:59.828Z,8.95
2022-08-26T22:18:05.297Z,9.48
2022-08-26T22:21:09.604Z,10.57
2022-08-26T22:24:12.270Z,11.73
2022-08-26T22:27:14.761Z,12.18
2022-08-26T22:30:16.483Z,11.30
2022-08-26T22:33:18.793Z,12.15
2022-08-26T22:36:28.861Z,12.13
2022-08-26T22:39:31.133Z,10.48
2022-08-26T22:42:33.237Z,10.43
2022-08-26T22:45:35.070Z,13.23
2022-08-26T22:48:38.505Z,16.65
2022-08-26T22:51:40.164Z,12.60
2022-08-26T22:54:41.812Z,11.68
2022-08-26T22:57:43.714Z,13.45
2022-08-26T23:00:47.963Z,10.25
2022-08-26T23:03:49.886Z,13.45
2022-08-26T23:06:51.592Z,13.70
2022-08-26T23:09:53.213Z,13.57
2022-08-26T23:12:54.871Z,11.73
2022-08-26T23:16:09.201Z,10.65
2022-08-26T23:19:14.534Z,12.10
2022-08-26T23:22:17.471Z,13.75
2022-08-26T23:25:19.419Z,14.88
2022-08-26T23:28:23.043Z,13.10
2022-08-26T23:31:24.990Z,13.90
2022-08-26T23:34:45.269Z,12.52
2022-08-26T23:37:54.105Z,15.50
2022-08-26T23:40:57.263Z,14.35
2022-08-26T23:44:03.304Z,14.27
2022-08-26T23:50:08.974Z,14.27
2022-08-26T23:53:11.239Z,17.63
2022-08-26T23:56:15.880Z,15.65
2022-08-26T23:59:17.595Z,13.30
